Time;durP1;ratioP1;P1;durP2;ratioP2;P2;SDS_P1;SDS_P2;PMS_P1;PMS_P2;Temp;Humidity;BMP_temperature;BMP_pressure;BME280_temperature;BME280_humidity;BME280_pressure;Samples;Min_cycle;Max_cycle;Signal;HPM_P1;HPM_P2
2022/04/11 00:01:49;;;;;;;8.80;6.18;;;;;;;5.77;65.37;94511.78;5008778;28;20026;-76
2022/04/11 00:04:15;;;;;;;12.32;6.20;;;;;;;5.78;65.44;94510.00;5009996;28;20072;-76
2022/04/11 00:06:40;;;;;;;6.50;5.75;;;;;;;5.84;64.88;94511.72;5009670;28;20040;-76
2022/04/11 00:09:06;;;;;;;5.63;5.05;;;;;;;5.86;64.78;94515.69;5010120;28;20381;-77
2022/04/11 00:11:31;;;;;;;9.50;5.43;;;;;;;5.92;64.26;94520.03;4992838;28;20033;-76
2022/04/11 00:13:56;;;;;;;11.57;5.03;;;;;;;5.99;63.17;94510.44;5009319;28;20034;-76
2022/04/11 00:16:22;;;;;;;7.15;5.25;;;;;;;6.02;63.64;94519.59;4999236;28;20029;-76
2022/04/11 00:18:48;;;;;;;8.82;5.97;;;;;;;6.09;63.23;94515.16;5009703;28;20205;-76
2022/04/11 00:21:13;;;;;;;9.68;6.43;;;;;;;6.12;62.34;94514.72;5009137;28;20469;-76
2022/04/11 00:23:39;;;;;;;6.80;5.10;;;;;;;6.16;62.43;94525.41;4991844;28;20030;-76
2022/04/11 00:26:04;;;;;;;6.03;4.07;;;;;;;6.19;61.88;94527.59;4992234;28;20033;-76
2022/04/11 00:28:29;;;;;;;6.13;4.60;;;;;;;6.24;62.06;94532.91;4992198;28;20042;-76
2022/04/11 00:30:55;;;;;;;5.20;4.70;;;;;;;6.23;61.53;94536.47;5008703;28;20029;-75
2022/04/11 00:33:20;;;;;;;7.35;4.78;;;;;;;6.27;61.01;94542.81;5008552;28;20040;-75
2022/04/11 00:35:46;;;;;;;11.10;5.50;;;;;;;6.30;61.45;94550.91;4991526;28;20033;-75
2022/04/11 00:38:12;;;;;;;7.10;5.22;;;;;;;6.31;60.90;94546.53;5008281;28;20168;-76
2022/04/11 00:40:37;;;;;;;5.43;4.75;;;;;;;6.24;60.36;94556.13;4991971;28;20058;-76
2022/04/11 00:43:03;;;;;;;6.80;4.50;;;;;;;6.21;60.62;94569.47;5008431;28;20037;-76
2022/04/11 00:45:28;;;;;;;12.48;5.18;;;;;;;6.19;60.93;94580.00;5008220;28;20038;-75
2022/04/11 00:47:54;;;;;;;5.65;4.28;;;;;;;6.27;61.51;94564.25;5009287;28;20117;-75
2022/04/11 00:53:09;;;;;;;4.82;4.15;;;;;;;6.27;59.33;94573.78;4995823;28;20049;-75
2022/04/11 00:55:34;;;;;;;4.60;4.13;;;;;;;6.27;59.65;94573.78;4991743;28;20038;-75
2022/04/11 00:58:00;;;;;;;4.60;4.20;;;;;;;6.26;59.22;94573.00;5008644;28;20489;-76
2022/04/11 01:00:26;;;;;;;5.80;4.60;;;;;;;6.31;59.12;94590.44;5008935;28;20038;-76
2022/04/11 01:02:51;;;;;;;9.95;4.07;;;;;;;6.25;59.17;94586.13;5007890;28;20092;-75
2022/04/11 01:05:16;;;;;;;6.30;4.15;;;;;;;6.26;59.81;94598.03;5009353;28;20100;-76
2022/04/11 01:07:43;;;;;;;7.45;4.47;;;;;;;6.25;59.72;94592.06;5009422;28;20069;-76
2022/04/11 01:10:08;;;;;;;5.72;4.30;;;;;;;6.22;59.57;94608.00;5008226;28;20042;-76
2022/04/11 01:12:34;;;;;;;5.88;4.30;;;;;;;6.20;59.28;94609.19;4992480;28;20466;-76
2022/04/11 01:14:59;;;;;;;4.60;4.05;;;;;;;6.20;59.80;94609.19;5008061;28;20145;-76
2022/04/11 01:17:35;;;;;;;5.85;3.38;;;;;;;6.19;59.18;94623.91;4991387;28;20512;-76
2022/04/11 01:20:16;;;;;;;4.45;4.05;;;;;;;6.13;59.19;94624.72;5008647;28;20068;-75
2022/04/11 01:22:42;;;;;;;12.15;3.88;;;;;;;6.13;59.67;94629.09;5007910;28;20030;-76
2022/04/11 01:25:08;;;;;;;4.18;3.72;;;;;;;6.21;59.23;94628.84;4991707;28;20034;-76
2022/04/11 01:27:33;;;;;;;7.95;4.03;;;;;;;6.19;58.95;94629.06;4992235;28;20034;-75
2022/04/11 01:30:02;;;;;;;6.40;4.20;;;;;;;6.13;59.32;94636.84;5009058;28;20041;-76
2022/04/11 01:32:28;;;;;;;5.10;4.10;;;;;;;6.11;59.57;94637.03;5007884;28;20042;-76
2022/04/11 01:34:54;;;;;;;5.07;4.00;;;;;;;6.09;59.49;94636.47;5009223;28;20030;-76
2022/04/11 01:37:23;;;;;;;3.75;3.45;;;;;;;6.06;58.88;94636.88;5007773;28;20044;-76
2022/04/11 01:39:49;;;;;;;6.32;4.43;;;;;;;6.10;59.41;94650.16;4991280;28;20038;-76
2022/04/11 01:42:14;;;;;;;4.20;3.80;;;;;;;6.10;58.44;94655.31;4991861;28;20046;-76
2022/04/11 01:44:40;;;;;;;5.40;3.80;;;;;;;6.06;58.71;94654.16;5007929;28;20034;-76
2022/04/11 01:47:05;;;;;;;4.55;4.18;;;;;;;6.10;58.84;94653.53;5009002;28;20036;-76
2022/04/11 01:49:30;;;;;;;4.20;3.80;;;;;;;6.06;58.93;94665.28;4994364;28;20050;-76
2022/04/11 01:51:56;;;;;;;7.60;3.90;;;;;;;6.10;59.12;94660.50;5012384;28;20034;-76
2022/04/11 01:54:21;;;;;;;3.83;3.53;;;;;;;6.13;58.45;94670.41;5012243;28;20030;-76
2022/04/11 01:56:47;;;;;;;4.57;3.50;;;;;;;6.14;58.85;94674.56;4994533;28;20405;-76
2022/04/11 01:59:14;;;;;;;6.28;3.95;;;;;;;6.16;58.26;94677.72;5011215;28;20469;-76
2022/04/11 02:01:40;;;;;;;4.57;3.95;;;;;;;6.19;58.57;94679.91;5011878;28;20030;-77
2022/04/11 02:04:05;;;;;;;6.35;3.75;;;;;;;6.24;58.21;94682.66;5010563;28;20045;-76
2022/04/11 02:06:31;;;;;;;5.40;3.53;;;;;;;6.25;57.59;94685.03;5012198;28;20033;-76
2022/04/11 02:08:56;;;;;;;4.75;3.63;;;;;;;6.31;57.67;94697.09;4994719;28;20576;-76
2022/04/11 02:11:21;;;;;;;4.00;3.70;;;;;;;6.32;58.01;94695.31;5011763;28;20030;-76
2022/04/11 02:13:47;;;;;;;3.58;3.28;;;;;;;6.36;57.67;94701.66;5011815;28;20045;-76
2022/04/11 02:16:12;;;;;;;4.05;3.72;;;;;;;6.39;57.08;94696.06;5010828;28;20022;-76
2022/04/11 02:18:38;;;;;;;9.45;3.95;;;;;;;6.38;57.68;94704.81;5011745;28;20057;-76
2022/04/11 02:21:03;;;;;;;5.30;3.47;;;;;;;6.34;57.54;94708.78;5009966;28;20034;-76
2022/04/11 02:23:28;;;;;;;3.80;3.28;;;;;;;6.31;57.56;94714.38;5009978;28;20036;-76
2022/04/11 02:25:54;;;;;;;5.82;4.03;;;;;;;6.32;58.07;94713.38;5011371;28;20026;-76
2022/04/11 02:28:20;;;;;;;7.75;3.92;;;;;;;6.30;58.10;94723.91;5011823;28;20408;-76
2022/04/11 02:30:46;;;;;;;5.47;3.75;;;;;;;6.31;57.90;94729.88;4993087;28;20027;-76
2022/04/11 02:33:12;;;;;;;6.57;4.28;;;;;;;6.26;57.68;94727.91;5001356;28;20042;-76
2022/04/11 02:35:37;;;;;;;4.40;3.97;;;;;;;6.28;57.82;94730.28;5011041;28;20060;-76
2022/04/11 02:38:02;;;;;;;3.85;3.55;;;;;;;6.28;58.56;94735.47;5011621;28;20041;-75
2022/04/11 02:40:28;;;;;;;4.68;3.88;;;;;;;6.32;57.97;94736.63;4994278;28;20041;-75
2022/04/11 02:42:53;;;;;;;6.80;3.38;;;;;;;6.38;58.29;94733.22;5011422;28;20061;-75
2022/04/11 02:45:19;;;;;;;20.30;3.47;;;;;;;6.43;57.75;94748.09;5010479;28;20037;-75
2022/04/11 02:47:45;;;;;;;3.85;3.40;;;;;;;6.45;57.97;94746.88;5009866;28;20025;-75
2022/04/11 02:50:10;;;;;;;5.43;3.75;;;;;;;6.49;58.33;94755.00;5011068;28;20424;-75
2022/04/11 02:52:38;;;;;;;3.40;3.08;;;;;;;6.55;57.93;94757.56;5009993;28;20054;-76
2022/04/11 02:55:04;;;;;;;4.68;3.20;;;;;;;6.62;57.43;94763.47;4994175;28;20093;-75
2022/04/11 02:57:30;;;;;;;7.97;4.07;;;;;;;6.63;58.36;94764.25;5010891;28;20555;-76
2022/04/11 03:00:04;;;;;;;3.60;3.35;;;;;;;6.65;58.13;94766.63;5009465;28;20035;-76
2022/04/11 03:02:29;;;;;;;4.20;3.75;;;;;;;6.72;57.51;94772.56;5011025;28;20540;-76
2022/04/11 03:04:55;;;;;;;6.97;3.97;;;;;;;6.80;57.26;94774.91;5010844;28;20038;-76
2022/04/11 03:07:20;;;;;;;5.10;3.63;;;;;;;6.85;56.83;94772.50;5009959;28;20041;-76
2022/04/11 03:09:47;;;;;;;5.47;3.90;;;;;;;6.85;57.26;94775.88;5010838;28;20037;-76
2022/04/11 03:12:12;;;;;;;6.30;4.75;;;;;;;6.85;57.52;94772.50;4993411;28;20157;-76
2022/04/11 03:14:38;;;;;;;9.23;4.32;;;;;;;6.88;56.53;94772.06;5009503;28;20037;-76
2022/04/11 03:17:03;;;;;;;9.15;4.88;;;;;;;6.90;57.69;94780.41;5009394;28;20026;-76
2022/04/11 03:19:29;;;;;;;8.80;4.65;;;;;;;6.87;58.18;94786.00;5009688;28;20065;-76
2022/04/11 03:21:54;;;;;;;4.80;4.32;;;;;;;6.96;57.35;94782.16;5009300;28;20026;-76
2022/04/11 03:24:20;;;;;;;5.90;4.88;;;;;;;7.03;57.24;94795.03;5009630;28;20033;-76
2022/04/11 03:26:45;;;;;;;6.20;4.68;;;;;;;6.97;57.76;94796.66;5010855;28;20033;-76
2022/04/11 03:29:11;;;;;;;6.60;4.38;;;;;;;7.03;57.19;94795.84;5008316;28;20058;-76
2022/04/11 03:31:36;;;;;;;5.18;4.18;;;;;;;6.98;57.22;94798.22;5009713;28;20038;-76
2022/04/11 03:34:01;;;;;;;5.55;4.72;;;;;;;6.97;57.37;94809.56;5010875;28;20029;-76
2022/04/11 03:36:27;;;;;;;6.90;4.60;;;;;;;7.10;57.57;94806.91;5009152;28;20026;-76
2022/04/11 03:38:52;;;;;;;7.85;6.00;;;;;;;7.18;56.48;94804.06;5010189;28;20072;-76
2022/04/11 03:41:18;;;;;;;7.88;5.40;;;;;;;7.17;56.28;94817.22;5010151;28;20037;-76
2022/04/11 03:43:43;;;;;;;10.10;5.97;;;;;;;7.15;56.41;94820.00;5010502;28;20095;-76
2022/04/11 03:46:08;;;;;;;17.70;6.78;;;;;;;7.18;55.85;94821.38;5009270;28;20029;-76
2022/04/11 03:48:34;;;;;;;10.55;5.60;;;;;;;7.14;55.30;94827.97;4993541;28;20041;-76
2022/04/11 03:50:59;;;;;;;10.68;5.50;;;;;;;7.08;54.26;94829.59;5009071;28;20433;-76
2022/04/11 03:53:25;;;;;;;11.23;6.00;;;;;;;7.05;54.49;94826.66;5008913;28;20038;-76
2022/04/11 03:55:50;;;;;;;11.43;5.03;;;;;;;7.04;54.55;94831.03;5010243;28;20030;-76
2022/04/11 03:58:16;;;;;;;8.02;5.50;;;;;;;7.03;54.66;94834.63;5008703;28;20041;-76
2022/04/11 04:00:41;;;;;;;7.28;5.97;;;;;;;7.03;54.70;94831.22;5008817;28;20037;-76
2022/04/11 04:03:10;;;;;;;7.72;5.80;;;;;;;6.99;55.31;94836.00;5009913;28;20026;-76
2022/04/11 04:05:43;;;;;;;6.55;4.93;;;;;;;6.96;54.24;94835.63;4993004;28;20034;-76
2022/04/11 04:08:09;;;;;;;15.63;4.65;;;;;;;6.89;54.08;94840.84;5008717;28;20037;-76
2022/04/11 04:10:34;;;;;;;10.13;5.68;;;;;;;6.78;54.62;94844.09;4991901;28;20037;-76
2022/04/11 04:13:00;;;;;;;8.30;5.18;;;;;;;6.77;54.88;94852.84;4992170;28;20145;-76
2022/04/11 04:15:25;;;;;;;8.52;4.40;;;;;;;6.76;54.20;94859.81;5009946;28;20041;-77
2022/04/11 04:17:54;;;;;;;4.55;4.20;;;;;;;6.67;54.89;94862.81;5008975;28;20022;-76
2022/04/11 04:20:20;;;;;;;9.18;4.90;;;;;;;6.61;55.47;94860.06;5009842;28;20022;-76
2022/04/11 04:22:45;;;;;;;9.18;4.32;;;;;;;6.60;54.76;94862.88;5008688;28;20042;-76
2022/04/11 04:25:10;;;;;;;14.05;5.20;;;;;;;6.56;55.03;94859.91;5009625;28;20025;-76
2022/04/11 04:27:36;;;;;;;8.35;5.28;;;;;;;6.53;55.03;94867.28;5009772;28;20056;-76
2022/04/11 04:30:02;;;;;;;10.60;4.88;;;;;;;6.43;54.83;94878.03;5008235;28;20851;-76
2022/04/11 04:32:28;;;;;;;6.63;4.68;;;;;;;6.38;55.35;94880.44;5007872;28;20034;-76
2022/04/11 04:34:53;;;;;;;14.82;6.60;;;;;;;6.37;55.78;94876.28;5008670;28;20417;-76
2022/04/11 04:37:19;;;;;;;10.48;5.85;;;;;;;6.37;55.61;94889.19;4995411;28;20057;-77
2022/04/11 04:39:45;;;;;;;8.25;6.35;;;;;;;6.42;55.54;94886.78;4996832;28;20038;-77
2022/04/11 04:42:10;;;;;;;7.65;5.57;;;;;;;6.42;55.55;94899.69;5011159;28;20025;-76
2022/04/11 04:44:40;;;;;;;11.80;6.43;;;;;;;6.49;55.79;94897.06;4993364;28;20022;-76
2022/04/11 04:47:06;;;;;;;10.00;6.38;;;;;;;6.47;55.33;94902.44;4992580;28;20033;-77
2022/04/11 04:49:32;;;;;;;8.10;5.22;;;;;;;6.52;54.51;94902.66;5008500;28;20497;-76
2022/04/11 04:51:58;;;;;;;19.02;5.18;;;;;;;6.52;54.47;94907.81;4992070;28;20061;-77
2022/04/11 04:54:24;;;;;;;10.13;7.40;;;;;;;6.53;54.96;94914.56;4990713;28;20053;-76
2022/04/11 04:56:49;;;;;;;15.05;8.70;;;;;;;6.58;55.62;94912.16;5007161;28;20034;-77
2022/04/11 04:59:15;;;;;;;9.07;6.50;;;;;;;6.65;54.55;94916.50;5008170;28;20471;-76
2022/04/11 05:01:41;;;;;;;9.48;6.30;;;;;;;6.86;54.16;94924.78;5007420;28;20176;-76
2022/04/11 05:04:06;;;;;;;9.77;5.43;;;;;;;6.95;53.92;94927.13;5007518;28;20121;-76
2022/04/11 05:06:32;;;;;;;9.32;5.25;;;;;;;7.08;53.47;94930.44;4990490;28;20440;-76
2022/04/11 05:08:57;;;;;;;8.40;5.90;;;;;;;7.22;53.14;94934.53;4990680;28;20034;-76
2022/04/11 05:11:24;;;;;;;9.05;6.75;;;;;;;7.28;53.00;94932.91;5007077;28;20477;-76
2022/04/11 05:13:49;;;;;;;12.35;6.80;;;;;;;7.33;52.06;94945.25;5006720;28;20096;-76
2022/04/11 05:16:15;;;;;;;13.68;7.40;;;;;;;7.38;52.94;94945.41;4990101;28;20042;-76
2022/04/11 05:18:41;;;;;;;16.17;8.30;;;;;;;7.47;52.69;94947.50;4990533;28;20045;-76
2022/04/11 05:21:07;;;;;;;9.95;5.95;;;;;;;7.55;51.98;94953.44;5007687;28;20124;-76
2022/04/11 05:23:32;;;;;;;11.80;6.15;;;;;;;7.49;52.12;94949.91;5011262;28;20073;-76
2022/04/11 05:25:57;;;;;;;10.30;6.47;;;;;;;7.56;51.71;94944.69;5012599;28;20030;-76
2022/04/11 05:28:23;;;;;;;10.05;5.05;;;;;;;7.43;51.42;94946.34;5011129;28;20036;-76
2022/04/11 05:30:48;;;;;;;9.48;5.25;;;;;;;7.32;51.25;94951.38;5010851;28;20038;-76
2022/04/11 05:33:15;;;;;;;11.30;5.97;;;;;;;7.27;51.97;94952.00;5012266;28;20022;-76
2022/04/11 05:35:58;;;;;;;7.20;4.68;;;;;;;7.21;52.34;94948.47;5011267;28;20022;-76
2022/04/11 05:38:23;;;;;;;11.13;5.28;;;;;;;7.26;51.76;94954.81;5012256;28;20038;-76
2022/04/11 05:40:49;;;;;;;8.23;5.53;;;;;;;7.22;51.19;94954.44;5012311;28;20037;-76
2022/04/11 05:43:14;;;;;;;9.73;6.00;;;;;;;7.16;51.83;94944.94;5011769;28;20053;-76
2022/04/11 05:45:41;;;;;;;7.78;5.38;;;;;;;7.09;51.75;94939.78;5007014;28;20502;-76
2022/04/11 05:48:06;;;;;;;9.07;5.20;;;;;;;6.99;51.44;94960.09;4993570;28;20461;-76
2022/04/11 05:50:32;;;;;;;8.20;5.45;;;;;;;6.91;52.17;94961.13;5009062;28;20031;-76
2022/04/11 05:52:57;;;;;;;8.73;5.90;;;;;;;6.75;52.73;94968.56;4995115;28;20030;-76
2022/04/11 05:55:23;;;;;;;12.35;6.30;;;;;;;6.52;52.94;94962.06;5011466;28;20091;-76
2022/04/11 05:57:49;;;;;;;13.05;6.53;;;;;;;6.50;53.95;94976.16;5011157;28;20117;-77
2022/04/11 06:00:15;;;;;;;9.95;6.28;;;;;;;6.57;53.67;94977.75;5010818;28;20061;-77
2022/04/11 06:02:40;;;;;;;16.30;6.97;;;;;;;6.64;53.74;94977.72;5010330;28;20044;-77
2022/04/11 06:05:07;;;;;;;9.25;7.65;;;;;;;6.76;53.41;94986.44;4994514;28;20029;-77
2022/04/11 06:07:33;;;;;;;12.48;7.63;;;;;;;6.89;52.96;94985.63;5010543;28;20405;-77
2022/04/11 06:09:59;;;;;;;11.02;7.53;;;;;;;6.92;53.04;94991.16;5010566;28;20041;-77
2022/04/11 06:12:25;;;;;;;20.00;8.75;;;;;;;6.98;53.28;94992.13;5011063;28;20140;-77
2022/04/11 06:14:53;;;;;;;14.50;8.35;;;;;;;7.07;52.93;95003.03;5010706;28;20036;-77
2022/04/11 06:17:23;;;;;;;14.65;10.15;;;;;;;7.33;53.52;94997.75;5011686;28;20156;-76
2022/04/11 06:19:52;;;;;;;21.30;10.27;;;;;;;7.55;52.32;95000.03;5010463;28;20125;-77
2022/04/11 06:22:17;;;;;;;13.05;8.05;;;;;;;7.74;51.70;94994.72;5010295;28;20064;-79
2022/04/11 06:24:46;;;;;;;10.60;7.88;;;;;;;7.97;50.62;95001.97;4994705;28;20034;-75
2022/04/11 06:27:12;;;;;;;11.30;7.45;;;;;;;8.17;49.84;95006.97;5011248;28;20065;-76
2022/04/11 06:29:37;;;;;;;13.93;6.93;;;;;;;8.33;49.64;94998.66;5009450;28;20141;-76
2022/04/11 06:32:04;;;;;;;15.57;8.63;;;;;;;8.72;49.68;94992.34;5011371;28;20453;-76
2022/04/11 06:34:33;;;;;;;16.02;9.50;;;;;;;9.09;48.20;94997.50;5010142;28;20037;-76
2022/04/11 06:36:59;;;;;;;14.75;8.45;;;;;;;9.24;47.20;94989.34;5011036;28;20096;-77
2022/04/11 06:39:24;;;;;;;13.52;7.13;;;;;;;9.26;46.68;94989.91;5011080;28;20030;-77
2022/04/11 06:41:50;;;;;;;11.60;7.50;;;;;;;9.23;45.70;94995.56;5010444;28;20081;-77
2022/04/11 06:44:15;;;;;;;9.35;7.15;;;;;;;9.15;45.05;94985.50;5009264;28;20453;-77
2022/04/11 06:46:41;;;;;;;10.25;6.20;;;;;;;8.95;45.87;95004.66;4994175;28;20516;-78
2022/04/11 06:49:06;;;;;;;7.82;6.30;;;;;;;9.00;45.31;94999.63;4992909;28;20049;-76
2022/04/11 06:51:32;;;;;;;11.25;5.57;;;;;;;9.18;45.86;94993.63;4993649;28;20041;-76
2022/04/11 06:53:57;;;;;;;7.13;5.35;;;;;;;9.39;45.64;95001.94;4993393;28;20064;-76
2022/04/11 06:56:23;;;;;;;9.77;5.63;;;;;;;9.73;44.60;94988.28;5011047;28;20403;-77
2022/04/11 06:58:48;;;;;;;7.90;6.13;;;;;;;9.92;44.30;95010.63;5010199;28;20033;-77
2022/04/11 07:01:14;;;;;;;8.23;6.05;;;;;;;10.18;43.39;94991.22;4993390;28;20047;-77
2022/04/11 07:03:39;;;;;;;9.23;5.10;;;;;;;10.39;43.43;95005.50;5011207;28;20041;-76
2022/04/11 07:06:04;;;;;;;10.60;5.50;;;;;;;10.73;42.26;95003.09;5011593;28;20030;-77
2022/04/11 07:08:30;;;;;;;8.23;5.88;;;;;;;10.99;41.25;95001.84;5011640;28;20042;-77
2022/04/11 07:10:59;;;;;;;15.88;5.28;;;;;;;11.20;41.03;94998.63;5010160;28;20037;-77
2022/04/11 07:13:24;;;;;;;8.23;5.68;;;;;;;11.14;41.12;95015.16;4993311;28;20102;-77
2022/04/11 07:15:50;;;;;;;9.48;5.63;;;;;;;11.17;40.16;95009.50;4993406;28;20062;-77
2022/04/11 07:18:15;;;;;;;12.32;4.70;;;;;;;11.19;40.06;95017.88;5009991;28;20037;-77
2022/04/11 07:20:41;;;;;;;10.55;4.85;;;;;;;11.34;39.80;95017.38;5009838;28;20061;-77
2022/04/11 07:23:06;;;;;;;11.45;5.45;;;;;;;11.34;38.91;95015.56;5010834;28;20038;-77
2022/04/11 07:25:32;;;;;;;8.48;4.40;;;;;;;11.19;38.81;95007.44;5011141;28;20029;-77
2022/04/11 07:27:57;;;;;;;7.80;4.28;;;;;;;10.90;40.66;95014.44;4993174;28;20038;-77
2022/04/11 07:30:23;;;;;;;7.88;4.88;;;;;;;11.03;40.07;95011.56;4992224;28;20497;-77
2022/04/11 07:32:48;;;;;;;20.05;4.95;;;;;;;10.84;40.86;95017.94;5010541;28;20399;-77
2022/04/11 07:35:14;;;;;;;8.18;4.57;;;;;;;10.71;41.04;95026.75;4992821;28;20045;-76
2022/04/11 07:37:39;;;;;;;12.38;4.63;;;;;;;10.75;40.07;95035.69;5010083;28;20029;-76
2022/04/11 07:40:05;;;;;;;7.38;4.75;;;;;;;10.77;41.54;95046.66;4992717;28;20041;-76
2022/04/11 07:42:31;;;;;;;13.00;6.47;;;;;;;10.81;41.08;95042.59;5009063;28;20030;-77
2022/04/11 07:44:56;;;;;;;7.75;5.43;;;;;;;10.81;40.81;95029.59;5025893;28;20048;-77
2022/04/11 07:47:22;;;;;;;11.27;6.25;;;;;;;10.76;40.50;95054.69;5009219;28;20402;-77
2022/04/11 07:49:47;;;;;;;11.82;7.30;;;;;;;10.61;40.33;95041.34;4993192;28;20507;-77
2022/04/11 07:52:13;;;;;;;14.45;8.93;;;;;;;10.56;40.43;95049.81;4993030;28;20042;-77
2022/04/11 07:54:38;;;;;;;20.85;8.48;;;;;;;10.59;41.09;95062.38;5009747;28;20034;-77
2022/04/11 07:57:04;;;;;;;19.42;8.50;;;;;;;10.63;40.90;95066.13;5010459;28;20042;-76
2022/04/11 07:59:30;;;;;;;10.07;7.28;;;;;;;10.75;40.74;95064.31;5010228;28;20038;-77
2022/04/11 08:01:55;;;;;;;8.75;5.70;;;;;;;10.78;41.19;95063.84;5009779;28;20030;-77
2022/04/11 08:04:21;;;;;;;12.50;4.60;;;;;;;10.64;39.67;95062.50;5009499;28;20029;-77
2022/04/11 08:06:46;;;;;;;8.60;4.60;;;;;;;10.28;40.88;95062.69;4993146;28;20038;-77
2022/04/11 08:09:11;;;;;;;11.30;5.22;;;;;;;9.81;41.73;95065.13;5024070;28;20029;-76
2022/04/11 08:11:37;;;;;;;11.45;5.53;;;;;;;9.48;42.52;95068.13;5016347;28;20064;-76
2022/04/11 08:14:02;;;;;;;9.88;5.60;;;;;;;9.71;42.28;95075.22;5008986;28;20104;-77
2022/04/11 08:16:28;;;;;;;8.40;4.88;;;;;;;9.88;42.92;95073.59;5009008;28;20575;-76
2022/04/11 08:18:53;;;;;;;9.18;5.38;;;;;;;10.03;42.34;95068.78;4992720;28;20037;-77
2022/04/11 08:21:19;;;;;;;10.60;7.22;;;;;;;10.15;43.01;95080.03;5009648;28;20053;-76
2022/04/11 08:23:44;;;;;;;12.07;5.68;;;;;;;10.16;41.62;95073.81;4992564;28;20029;-77
2022/04/11 08:26:09;;;;;;;7.40;5.07;;;;;;;10.05;42.34;95082.34;5013342;28;20076;-77
2022/04/11 08:28:35;;;;;;;11.02;4.78;;;;;;;10.22;41.67;95070.34;5007533;28;20026;-77
2022/04/11 08:31:00;;;;;;;11.35;4.65;;;;;;;10.38;41.16;95068.91;5009421;28;20041;-77
2022/04/11 08:33:26;;;;;;;13.48;5.10;;;;;;;10.26;40.96;95081.09;5009694;28;20052;-77
2022/04/11 08:35:52;;;;;;;20.85;4.90;;;;;;;10.07;41.94;95077.72;5008730;28;20457;-77
2022/04/11 08:38:17;;;;;;;20.98;5.88;;;;;;;10.40;42.31;95072.06;5009459;28;20079;-77
2022/04/11 08:40:43;;;;;;;19.00;10.20;;;;;;;10.43;41.49;95081.25;5009512;28;20022;-77
2022/04/11 08:43:09;;;;;;;18.20;9.77;;;;;;;10.46;41.76;95084.19;4993703;28;20037;-77
2022/04/11 08:45:34;;;;;;;16.48;8.40;;;;;;;10.74;42.15;95093.16;4992351;28;20064;-77
2022/04/11 08:48:00;;;;;;;15.85;6.47;;;;;;;10.95;40.27;95086.59;5008173;28;20042;-77
2022/04/11 08:50:26;;;;;;;8.70;4.78;;;;;;;10.75;40.05;95085.13;5008818;28;20030;-77
2022/04/11 08:52:52;;;;;;;15.45;4.57;;;;;;;10.64;40.29;95078.09;5008662;28;20042;-77
2022/04/11 08:55:18;;;;;;;11.35;3.78;;;;;;;10.51;39.40;95078.31;5008420;28;20033;-77
2022/04/11 08:57:43;;;;;;;7.13;5.00;;;;;;;10.45;40.96;95094.81;5008926;28;20145;-77
2022/04/11 09:00:11;;;;;;;8.30;5.18;;;;;;;10.48;41.02;95079.53;5007994;28;20189;-77
2022/04/11 09:02:36;;;;;;;8.50;5.70;;;;;;;10.74;40.51;95087.94;5007964;28;20034;-77
2022/04/11 09:05:02;;;;;;;12.52;7.18;;;;;;;10.98;39.93;95083.53;5009016;28;20457;-77
2022/04/11 09:07:28;;;;;;;8.45;6.57;;;;;;;11.02;39.44;95084.66;5007872;28;20030;-77
2022/04/11 09:09:57;;;;;;;12.02;7.30;;;;;;;11.06;39.43;95093.56;4992254;28;20030;-77
2022/04/11 09:12:22;;;;;;;22.20;9.63;;;;;;;11.17;39.81;95103.19;4991242;28;20036;-77
2022/04/11 09:14:55;;;;;;;23.02;12.32;;;;;;;11.30;39.46;95092.53;5007643;28;20429;-78
2022/04/11 09:17:24;;;;;;;18.38;4.60;;;;;;;11.20;38.36;95087.13;4992614;28;20029;-77
2022/04/11 09:20:13;;;;;;;17.92;6.90;;;;;;;11.19;39.06;95092.56;4992714;28;20065;-76
2022/04/11 09:22:38;;;;;;;11.38;5.10;;;;;;;11.09;39.84;95106.16;5025279;28;20030;-77
2022/04/11 09:25:10;;;;;;;11.60;7.20;;;;;;;10.88;38.84;95104.91;5016118;28;20068;-78
2022/04/11 09:27:36;;;;;;;9.52;7.10;;;;;;;10.98;39.27;95096.53;5008869;28;20072;-77
2022/04/11 09:30:01;;;;;;;15.25;7.95;;;;;;;10.99;39.20;95105.94;5009552;28;20042;-76
2022/04/11 09:32:27;;;;;;;7.47;6.50;;;;;;;10.96;38.48;95101.19;5009110;28;20037;-77
2022/04/11 09:34:53;;;;;;;10.10;7.72;;;;;;;10.90;39.27;95096.88;5008295;28;20564;-77
2022/04/11 09:37:20;;;;;;;11.50;6.45;;;;;;;10.99;38.97;95096.31;5007141;28;20033;-77
2022/04/11 09:39:53;;;;;;;8.43;5.47;;;;;;;11.16;39.09;95090.41;5008740;28;20030;-77
2022/04/11 09:42:28;;;;;;;;;;;;;;;11.12;38.46;95079.69;4992630;28;20485;-77
2022/04/11 09:44:58;;;;;;;9.70;3.85;;;;;;;10.95;38.35;95058.75;5007956;28;19957;-77
2022/04/11 09:47:24;;;;;;;5.28;4.07;;;;;;;10.63;39.25;95071.31;5009072;28;20038;-77
2022/04/11 09:49:49;;;;;;;5.43;4.22;;;;;;;10.48;39.61;95083.97;5007429;28;20042;-77
2022/04/11 09:52:15;;;;;;;5.97;4.65;;;;;;;10.46;39.57;95080.78;4991430;28;20038;-76
2022/04/11 09:54:52;;;;;;;4.53;3.58;;;;;;;10.30;38.77;95051.03;5007084;28;20096;-76
2022/04/11 09:57:18;;;;;;;8.57;4.03;;;;;;;10.11;40.78;95072.91;4991358;28;20037;-76
2022/04/11 09:59:44;;;;;;;5.80;4.07;;;;;;;10.20;39.91;95067.13;5007152;28;20099;-75
2022/04/11 10:02:14;;;;;;;4.10;3.72;;;;;;;10.48;40.05;95076.94;5007135;28;20041;-76
2022/04/11 10:04:39;;;;;;;5.97;4.25;;;;;;;10.82;39.06;95083.19;5006039;28;20033;-75
2022/04/11 10:07:11;;;;;;;7.03;4.00;;;;;;;11.11;39.03;95084.09;5008444;28;20642;-76
2022/04/11 10:09:40;;;;;;;12.85;4.55;;;;;;;11.46;36.98;95085.84;5008911;28;20038;-76
2022/04/11 10:12:06;;;;;;;6.80;3.50;;;;;;;11.41;36.20;95083.16;4994328;28;20033;-77
2022/04/11 10:14:31;;;;;;;14.25;4.53;;;;;;;11.27;37.00;95080.00;5011321;28;20482;-77
2022/04/11 10:17:02;;;;;;;6.00;4.60;;;;;;;11.18;37.39;95081.34;4994399;28;20037;-76
2022/04/11 10:19:30;;;;;;;7.50;3.97;;;;;;;11.08;36.60;95086.38;5010539;28;20188;-78
2022/04/11 10:22:11;;;;;;;12.15;5.75;;;;;;;10.88;36.83;95088.50;5010007;28;20034;-77
2022/04/11 10:25:06;;;;;;;6.18;5.18;;;;;;;10.65;37.18;95082.28;5011898;28;20030;-77
2022/04/11 10:27:32;;;;;;;7.95;4.85;;;;;;;10.47;38.18;95083.16;5004981;28;20046;-77
2022/04/11 10:29:59;;;;;;;17.02;4.63;;;;;;;10.49;37.83;95088.94;5010814;28;20103;-77
2022/04/11 10:32:28;;;;;;;11.23;5.90;;;;;;;10.82;38.39;95087.59;5010100;28;20060;-77
2022/04/11 10:35:00;;;;;;;9.15;5.72;;;;;;;11.01;38.59;95088.28;4994285;28;20065;-77
2022/04/11 10:37:28;;;;;;;5.05;4.40;;;;;;;11.09;36.89;95082.75;5010559;28;20025;-77
2022/04/11 10:40:13;;;;;;;6.90;5.30;;;;;;;11.26;36.13;95075.03;5010580;28;20566;-78
2022/04/11 10:42:39;;;;;;;9.00;4.95;;;;;;;11.35;36.08;95074.41;5012904;28;20387;-77
2022/04/11 10:45:05;;;;;;;9.20;6.10;;;;;;;11.39;36.37;95080.78;4993864;28;20042;-77
2022/04/11 10:47:31;;;;;;;13.48;4.63;;;;;;;11.52;36.78;95078.91;5009842;28;20034;-77
2022/04/11 10:50:01;;;;;;;5.32;3.63;;;;;;;11.51;35.32;95077.31;4993637;28;20034;-77
2022/04/11 10:52:33;;;;;;;5.57;3.72;;;;;;;11.43;35.54;95086.31;5009781;28;20026;-77
2022/04/11 10:55:05;;;;;;;6.50;3.38;;;;;;;11.36;34.65;95080.41;5025670;28;20044;-78
2022/04/11 10:57:37;;;;;;;4.18;3.55;;;;;;;10.97;34.83;95081.94;5011774;28;20582;-77
2022/04/11 11:00:06;;;;;;;;;;;;;;;10.84;35.16;95080.34;4994239;28;20038;-77
2022/04/11 11:02:57;;;;;;;7.93;3.95;;;;;;;10.78;36.70;95082.06;5010211;28;20379;-77
2022/04/11 11:05:26;;;;;;;5.00;3.85;;;;;;;10.77;36.36;95072.69;5010609;28;20045;-77
2022/04/11 11:08:07;;;;;;;3.78;3.47;;;;;;;10.74;37.24;95082.75;5010260;28;20037;-76
2022/04/11 11:10:45;;;;;;;3.75;3.30;;;;;;;10.99;35.87;95082.50;5009168;28;20045;-76
2022/04/11 11:13:36;;;;;;;6.35;4.35;;;;;;;11.20;35.84;95079.31;5008874;28;20072;-77
2022/04/11 11:16:14;;;;;;;9.95;4.40;;;;;;;11.26;35.99;95078.41;5010895;28;20034;-77
2022/04/11 11:18:45;;;;;;;6.55;4.30;;;;;;;11.28;35.57;95092.00;5010648;28;20473;-77
2022/04/11 11:21:11;;;;;;;10.23;4.32;;;;;;;11.36;35.57;95091.63;5010424;28;20034;-75
2022/04/11 11:23:41;;;;;;;15.80;10.07;;;;;;;11.53;35.78;95073.47;5010900;28;20026;-77
2022/04/11 11:26:07;;;;;;;8.77;3.90;;;;;;;11.64;34.62;95090.09;4991847;28;20774;-77
2022/04/11 11:28:33;;;;;;;4.07;3.67;;;;;;;11.42;33.16;95074.31;5011749;28;20034;-77
2022/04/11 11:30:58;;;;;;;5.15;3.30;;;;;;;11.21;33.40;95083.50;5010293;28;20042;-77
2022/04/11 11:33:24;;;;;;;11.57;3.83;;;;;;;11.13;34.81;95087.25;5009301;28;20026;-77
2022/04/11 11:35:50;;;;;;;4.03;3.72;;;;;;;11.09;34.24;95075.72;4991896;28;20139;-77
2022/04/11 11:38:23;;;;;;;4.32;3.13;;;;;;;10.96;34.28;95081.16;5006891;28;20029;-77